createdAt,value
2018-01-12T00:00:06.213Z,89.58
2018-01-12T00:01:06.217Z,89.58
2018-01-12T00:02:06.217Z,89.29
2018-01-12T00:03:06.224Z,89.10
2018-01-12T00:04:06.222Z,89.29
2018-01-12T00:05:06.223Z,89.39
2018-01-12T00:06:06.225Z,88.91
2018-01-12T00:07:06.230Z,88.72
2018-01-12T00:08:06.230Z,89.20
2018-01-12T00:09:06.232Z,89.20
2018-01-12T00:10:06.240Z,88.72
2018-01-12T00:11:06.245Z,89.29
2018-01-12T00:12:06.238Z,89.39
2018-01-12T00:13:06.244Z,90.33
2018-01-12T00:14:06.250Z,89.48
2018-01-12T00:15:06.247Z,89.58
2018-01-12T00:16:06.252Z,90.33
2018-01-12T00:17:06.253Z,90.05
2018-01-12T00:18:06.258Z,90.14
2018-01-12T00:19:06.257Z,90.14
2018-01-12T00:20:06.264Z,90.14
2018-01-12T00:21:06.261Z,89.48
2018-01-12T00:22:06.263Z,90.24
2018-01-12T00:23:06.264Z,89.39
2018-01-12T00:24:06.269Z,89.58
2018-01-12T00:25:06.271Z,89.29
2018-01-12T00:26:06.276Z,89.00
2018-01-12T00:27:06.275Z,88.91
2018-01-12T00:28:08.632Z,89.29
2018-01-12T00:29:06.281Z,89.10
2018-01-12T00:30:06.282Z,89.29
2018-01-12T00:31:06.286Z,89.00
2018-01-12T00:32:06.286Z,88.91
2018-01-12T00:33:06.292Z,89.00
2018-01-12T00:34:06.295Z,89.00
2018-01-12T00:35:06.297Z,88.62
2018-01-12T00:36:06.295Z,88.62
2018-01-12T00:37:06.299Z,88.62
2018-01-12T00:38:06.303Z,88.72
2018-01-12T00:39:06.308Z,88.62
2018-01-12T00:40:06.313Z,88.62
2018-01-12T00:41:06.312Z,88.53
2018-01-12T00:42:06.312Z,88.72
2018-01-12T00:43:06.317Z,88.81
2018-01-12T00:44:06.320Z,88.72
2018-01-12T00:45:06.320Z,88.24
2018-01-12T00:46:06.326Z,88.53
2018-01-12T00:47:06.325Z,88.81
2018-01-12T00:48:06.328Z,88.91
2018-01-12T00:49:06.329Z,88.91
2018-01-12T00:50:06.339Z,88.62
2018-01-12T00:51:06.337Z,88.34
2018-01-12T00:52:06.341Z,88.62
2018-01-12T00:53:06.341Z,89.00
2018-01-12T00:54:06.342Z,88.72
2018-01-12T00:55:06.350Z,88.72
2018-01-12T00:56:06.351Z,88.62
2018-01-12T00:57:06.349Z,89.00
2018-01-12T00:58:06.354Z,89.00
2018-01-12T00:59:06.361Z,89.29
2018-01-12T01:00:06.362Z,89.29
2018-01-12T01:01:06.361Z,89.20
2018-01-12T01:02:06.364Z,89.20
2018-01-12T01:03:06.368Z,89.10
2018-01-12T01:04:06.374Z,88.91
2018-01-12T01:05:06.425Z,89.29
2018-01-12T01:06:06.373Z,89.00
2018-01-12T01:07:06.383Z,88.91
2018-01-12T01:08:06.375Z,88.81
2018-01-12T01:09:06.384Z,88.24
2018-01-12T01:10:06.399Z,89.00
2018-01-12T01:11:06.385Z,89.10
2018-01-12T01:12:06.387Z,89.29
2018-01-12T01:13:06.396Z,89.29
2018-01-12T01:14:06.399Z,89.10
2018-01-12T01:15:06.396Z,89.10
2018-01-12T01:16:06.398Z,88.72
2018-01-12T01:17:06.404Z,88.91
2018-01-12T01:18:06.404Z,88.24
2018-01-12T01:19:06.407Z,88.72
2018-01-12T01:20:06.412Z,88.81
2018-01-12T01:21:06.410Z,88.81
2018-01-12T01:22:06.416Z,88.62
2018-01-12T01:23:06.414Z,88.43
2018-01-12T01:24:06.420Z,88.72
2018-01-12T01:25:06.424Z,88.53
2018-01-12T01:26:06.424Z,89.00
2018-01-12T01:27:06.431Z,89.00
2018-01-12T01:28:06.428Z,88.91
2018-01-12T01:29:06.434Z,88.72
2018-01-12T01:30:06.432Z,88.53
2018-01-12T01:31:06.442Z,88.91
2018-01-12T01:32:06.440Z,88.24
2018-01-12T01:33:06.446Z,88.62
2018-01-12T01:34:06.446Z,88.53
2018-01-12T01:35:06.452Z,88.43
2018-01-12T01:36:06.451Z,87.68
2018-01-12T01:37:06.458Z,88.53
2018-01-12T01:38:06.456Z,87.87
2018-01-12T01:39:06.467Z,87.30
2018-01-12T01:40:06.465Z,87.53
2018-01-12T01:41:06.463Z,87.62
2018-01-12T01:42:06.472Z,87.24
2018-01-12T01:43:06.468Z,87.34
2018-01-12T01:44:06.474Z,87.68
2018-01-12T01:45:06.481Z,87.68
2018-01-12T01:46:06.482Z,87.58
2018-01-12T01:47:06.478Z,87.77
2018-01-12T01:48:06.481Z,87.68
2018-01-12T01:49:06.483Z,87.77
2018-01-12T01:50:06.493Z,87.68
2018-01-12T01:51:06.490Z,88.72
2018-01-12T01:52:06.497Z,88.43
2018-01-12T01:53:06.496Z,87.87
2018-01-12T01:54:06.503Z,87.96
2018-01-12T01:55:06.501Z,87.20
2018-01-12T01:56:06.507Z,86.72
2018-01-12T01:57:06.508Z,86.91
2018-01-12T01:58:06.512Z,86.91
2018-01-12T01:59:06.514Z,86.54
2018-01-12T02:00:06.516Z,86.82
2018-01-12T02:01:06.516Z,86.91
2018-01-12T02:02:06.521Z,87.20
2018-01-12T02:03:06.527Z,87.11
2018-01-12T02:04:06.527Z,87.11
2018-01-12T02:05:06.528Z,87.39
2018-01-12T02:06:06.533Z,86.91
2018-01-12T02:07:06.533Z,86.82
2018-01-12T02:08:06.599Z,86.82
2018-01-12T02:09:06.535Z,86.63
2018-01-12T02:10:06.544Z,86.54
2018-01-12T02:11:06.543Z,86.82
2018-01-12T02:12:06.546Z,86.72
2018-01-12T02:13:06.550Z,86.91
2018-01-12T02:14:06.553Z,86.44
2018-01-12T02:15:06.555Z,86.91
2018-01-12T02:16:06.556Z,86.63
2018-01-12T02:17:06.563Z,86.54
2018-01-12T02:18:06.566Z,86.82
2018-01-12T02:19:06.622Z,86.72
2018-01-12T02:20:06.572Z,86.72
2018-01-12T02:21:06.570Z,87.11
2018-01-12T02:22:06.576Z,86.77
2018-01-12T02:23:06.579Z,86.30
2018-01-12T02:24:06.582Z,86.68
2018-01-12T02:25:06.581Z,86.35
2018-01-12T02:26:06.584Z,86.82
2018-01-12T02:27:06.594Z,86.96
2018-01-12T02:28:06.588Z,86.72
2018-01-12T02:29:06.592Z,86.91
2018-01-12T02:30:06.597Z,86.54
2018-01-12T02:31:06.604Z,87.39
2018-01-12T02:32:06.599Z,87.39
2018-01-12T02:33:06.622Z,87.87
2018-01-12T02:34:06.605Z,87.68
2018-01-12T02:35:06.611Z,88.24
2018-01-12T02:36:06.614Z,87.20
2018-01-12T02:37:06.614Z,87.87
2018-01-12T02:38:06.614Z,87.96
2018-01-12T02:39:06.621Z,88.62
2018-01-12T02:40:06.622Z,88.24
2018-01-12T02:41:06.624Z,88.34
2018-01-12T02:42:06.625Z,88.53
2018-01-12T02:43:06.637Z,88.62
2018-01-12T02:44:06.635Z,88.62
2018-01-12T02:45:06.633Z,88.53
2018-01-12T02:46:06.638Z,88.53
2018-01-12T02:47:06.637Z,88.15
2018-01-12T02:48:06.643Z,87.96
2018-01-12T02:49:06.642Z,88.15
2018-01-12T02:50:06.648Z,88.43
2018-01-12T02:51:06.652Z,88.34
2018-01-12T02:52:06.649Z,88.34
2018-01-12T02:53:08.099Z,88.34
2018-01-12T02:54:08.010Z,87.87
2018-01-12T02:55:07.119Z,87.96
2018-01-12T02:56:06.660Z,87.96
2018-01-12T02:57:06.667Z,87.39
2018-01-12T02:58:06.666Z,88.43
2018-01-12T02:59:06.672Z,87.77
2018-01-12T03:00:06.675Z,87.87
2018-01-12T03:01:06.673Z,87.68
2018-01-12T03:02:06.673Z,87.49
2018-01-12T03:03:06.680Z,87.20
2018-01-12T03:04:06.683Z,87.49
2018-01-12T03:05:06.684Z,87.87
2018-01-12T03:06:06.685Z,87.77
2018-01-12T03:07:06.693Z,87.68
2018-01-12T03:08:06.693Z,87.30
2018-01-12T03:09:06.694Z,87.30
2018-01-12T03:10:06.697Z,87.30
2018-01-12T03:11:06.818Z,87.49
2018-01-12T03:12:06.704Z,87.30
2018-01-12T03:13:06.704Z,87.20
2018-01-12T03:14:06.711Z,87.68
2018-01-12T03:15:06.712Z,87.20
2018-01-12T03:16:06.714Z,87.30
2018-01-12T03:17:06.720Z,87.11
2018-01-12T03:18:06.726Z,87.58
2018-01-12T03:19:06.721Z,87.11
2018-01-12T03:20:06.725Z,87.87
2018-01-12T03:21:06.729Z,87.49
2018-01-12T03:22:06.730Z,87.68
2018-01-12T03:23:06.731Z,87.68
2018-01-12T03:24:06.736Z,87.68
2018-01-12T03:25:06.738Z,88.10
2018-01-12T03:26:06.741Z,87.87
2018-01-12T03:27:06.743Z,87.77
2018-01-12T03:28:06.743Z,87.68
2018-01-12T03:29:06.754Z,87.87
2018-01-12T03:30:06.751Z,87.58
2018-01-12T03:31:06.751Z,87.49
2018-01-12T03:32:06.760Z,88.01
2018-01-12T03:33:06.756Z,87.49
2018-01-12T03:34:06.762Z,87.87
2018-01-12T03:35:06.763Z,87.72
2018-01-12T03:36:06.772Z,87.72
2018-01-12T03:37:06.767Z,87.72
2018-01-12T03:38:06.776Z,87.62
2018-01-12T03:39:06.773Z,87.68
2018-01-12T03:40:06.775Z,87.87
2018-01-12T03:41:06.781Z,87.68
2018-01-12T03:42:06.786Z,87.49
2018-01-12T03:43:06.789Z,87.30
2018-01-12T03:44:06.790Z,87.58
2018-01-12T03:45:06.787Z,88.06
2018-01-12T03:46:06.790Z,87.39
2018-01-12T03:47:06.796Z,87.58
2018-01-12T03:48:06.797Z,88.43
2018-01-12T03:49:06.804Z,88.34
2018-01-12T03:50:06.803Z,88.34
2018-01-12T03:51:06.810Z,88.91
2018-01-12T03:52:06.808Z,88.43
2018-01-12T03:53:06.812Z,88.62
2018-01-12T03:54:06.812Z,88.24
2018-01-12T03:55:06.820Z,88.43
2018-01-12T03:56:06.823Z,88.34
2018-01-12T03:57:06.828Z,88.34
2018-01-12T03:58:06.823Z,88.81
2018-01-12T03:59:06.831Z,88.72
2018-01-12T04:00:06.829Z,88.62
2018-01-12T04:01:06.836Z,88.53
2018-01-12T04:02:06.840Z,88.24
2018-01-12T04:03:06.841Z,87.77
2018-01-12T04:04:06.849Z,88.76
2018-01-12T04:05:06.844Z,87.72
2018-01-12T04:06:06.846Z,87.68
2018-01-12T04:07:06.850Z,87.58
2018-01-12T04:08:06.855Z,87.77
2018-01-12T04:09:06.852Z,87.68
2018-01-12T04:10:06.861Z,87.68
2018-01-12T04:11:06.863Z,87.72
2018-01-12T04:12:06.920Z,87.43
2018-01-12T04:13:06.868Z,87.72
2018-01-12T04:14:06.867Z,87.43
2018-01-12T04:15:06.872Z,87.49
2018-01-12T04:16:06.872Z,87.96
2018-01-12T04:17:06.876Z,87.87
2018-01-12T04:18:06.882Z,87.62
2018-01-12T04:19:06.888Z,88.06
2018-01-12T04:20:06.883Z,88.01
2018-01-12T04:21:06.919Z,87.49
2018-01-12T04:22:06.891Z,87.96
2018-01-12T04:23:06.891Z,88.06
2018-01-12T04:24:06.894Z,87.87
2018-01-12T04:25:06.899Z,87.68
2018-01-12T04:26:06.908Z,87.58
2018-01-12T04:27:06.900Z,88.53
2018-01-12T04:28:07.816Z,87.96
2018-01-12T04:29:06.907Z,87.87
2018-01-12T04:30:06.911Z,87.87
2018-01-12T04:31:06.915Z,87.87
2018-01-12T04:32:06.919Z,88.62
2018-01-12T04:33:06.918Z,88.57
2018-01-12T04:34:06.926Z,88.76
2018-01-12T04:35:06.977Z,88.06
2018-01-12T04:36:06.928Z,87.72
2018-01-12T04:37:06.927Z,87.72
2018-01-12T04:38:06.936Z,87.82
2018-01-12T04:39:06.939Z,87.87
2018-01-12T04:40:06.938Z,87.72
2018-01-12T04:41:06.940Z,87.34
2018-01-12T04:42:06.945Z,87.72
2018-01-12T04:43:06.946Z,87.62
2018-01-12T04:44:06.947Z,87.82
2018-01-12T04:45:06.956Z,87.91
2018-01-12T04:46:06.952Z,87.91
2018-01-12T04:47:06.958Z,88.01
2018-01-12T04:48:06.956Z,87.53
2018-01-12T04:49:06.964Z,87.53
2018-01-12T04:50:06.967Z,88.24
2018-01-12T04:51:06.972Z,87.39
2018-01-12T04:52:06.963Z,87.49
2018-01-12T04:53:06.974Z,87.34
2018-01-12T04:54:06.975Z,88.43
2018-01-12T04:55:06.976Z,87.68
2018-01-12T04:56:06.978Z,87.58
2018-01-12T04:57:06.979Z,88.06
2018-01-12T04:58:06.984Z,87.20
2018-01-12T04:59:06.987Z,87.77
2018-01-12T05:00:06.989Z,88.06
2018-01-12T05:01:06.997Z,88.53
2018-01-12T05:02:06.999Z,87.87
2018-01-12T05:03:07.007Z,87.30
2018-01-12T05:04:06.998Z,87.77
2018-01-12T05:05:07.006Z,87.77
2018-01-12T05:06:07.007Z,88.06
2018-01-12T05:07:07.008Z,88.43
2018-01-12T05:08:07.008Z,88.72
2018-01-12T05:09:07.017Z,87.87
2018-01-12T05:10:07.016Z,87.87
2018-01-12T05:11:07.024Z,87.39
2018-01-12T05:12:07.022Z,87.82
2018-01-12T05:13:07.029Z,87.87
2018-01-12T05:14:07.065Z,87.82
2018-01-12T05:15:07.037Z,87.58
2018-01-12T05:16:07.035Z,87.58
2018-01-12T05:17:07.034Z,87.82
2018-01-12T05:18:07.037Z,87.82
2018-01-12T05:19:07.043Z,87.91
2018-01-12T05:20:07.043Z,87.72
2018-01-12T05:21:07.047Z,87.91
2018-01-12T05:22:07.048Z,87.91
2018-01-12T05:23:07.058Z,87.77
2018-01-12T05:24:07.074Z,87.87
2018-01-12T05:25:07.057Z,87.68
2018-01-12T05:26:07.089Z,87.30
2018-01-12T05:27:07.062Z,87.68
2018-01-12T05:28:07.067Z,87.11
2018-01-12T05:29:07.066Z,87.87
2018-01-12T05:30:07.071Z,88.43
2018-01-12T05:31:07.071Z,88.43
2018-01-12T05:32:07.075Z,88.53
2018-01-12T05:33:07.079Z,88.34
2018-01-12T05:34:07.077Z,88.34
2018-01-12T05:35:07.086Z,88.43
2018-01-12T05:36:07.082Z,88.24
2018-01-12T05:37:07.091Z,88.43
2018-01-12T05:38:07.096Z,88.06
2018-01-12T05:39:07.097Z,88.43
2018-01-12T05:40:07.102Z,88.34
2018-01-12T05:41:07.110Z,88.24
2018-01-12T05:42:07.113Z,88.15
2018-01-12T05:43:07.106Z,88.43
2018-01-12T05:44:07.110Z,87.68
2018-01-12T05:45:07.143Z,88.53
2018-01-12T05:46:07.112Z,88.53
2018-01-12T05:47:07.118Z,88.53
2018-01-12T05:48:07.119Z,88.15
2018-01-12T05:49:07.120Z,88.39
2018-01-12T05:50:07.124Z,87.72
2018-01-12T05:51:07.124Z,87.77
2018-01-12T05:52:07.196Z,87.53
2018-01-12T05:53:07.155Z,87.72
2018-01-12T05:54:07.138Z,87.68
2018-01-12T05:55:07.135Z,87.58
2018-01-12T05:56:07.136Z,87.87
2018-01-12T05:57:07.161Z,87.77
2018-01-12T05:58:07.149Z,88.57
2018-01-12T05:59:07.208Z,88.48
2018-01-12T06:00:07.150Z,88.20
2018-01-12T06:01:07.155Z,87.87
2018-01-12T06:02:07.157Z,87.82
2018-01-12T06:03:07.159Z,87.91
2018-01-12T06:04:07.164Z,87.91
2018-01-12T06:05:07.165Z,88.01
2018-01-12T06:06:07.164Z,87.91
2018-01-12T06:07:07.173Z,87.82
2018-01-12T06:08:07.173Z,87.82
2018-01-12T06:09:07.171Z,88.01
2018-01-12T06:10:07.175Z,87.62
2018-01-12T06:11:07.185Z,87.15
2018-01-12T06:12:07.194Z,87.62
2018-01-12T06:13:07.188Z,87.91
2018-01-12T06:14:07.187Z,87.82
2018-01-12T06:15:07.189Z,87.53
2018-01-12T06:16:07.192Z,87.34
2018-01-12T06:17:07.211Z,87.62
2018-01-12T06:18:07.197Z,87.15
2018-01-12T06:19:07.205Z,87.53
2018-01-12T06:20:07.203Z,87.72
2018-01-12T06:21:07.214Z,87.91
2018-01-12T06:22:07.222Z,87.62
2018-01-12T06:23:07.218Z,87.82
2018-01-12T06:24:07.214Z,87.11
2018-01-12T06:25:07.218Z,88.43
2018-01-12T06:26:07.220Z,88.34
2018-01-12T06:27:07.226Z,88.72
2018-01-12T06:29:47.687Z,88.62
2018-01-12T06:30:47.692Z,88.72
2018-01-12T06:31:47.705Z,88.39
2018-01-12T06:32:47.695Z,88.39
2018-01-12T06:33:47.694Z,88.10
2018-01-12T06:34:47.699Z,88.29
2018-01-12T06:35:47.698Z,88.48
2018-01-12T06:36:47.699Z,88.76
2018-01-12T06:37:47.711Z,88.95
2018-01-12T06:38:47.722Z,88.67
2018-01-12T06:39:47.710Z,88.53
2018-01-12T06:40:47.715Z,88.39
2018-01-12T06:41:47.718Z,88.86
2018-01-12T06:42:47.721Z,88.67
2018-01-12T06:43:47.721Z,88.57
2018-01-12T06:44:47.724Z,88.20
2018-01-12T06:45:47.735Z,88.20
2018-01-12T06:46:47.732Z,88.76
2018-01-12T06:47:47.732Z,88.67
2018-01-12T06:48:47.738Z,88.67
2018-01-12T06:49:47.745Z,88.39
2018-01-12T06:50:47.739Z,88.29
2018-01-12T06:51:47.742Z,88.57
2018-01-12T06:52:47.742Z,88.29
2018-01-12T06:53:47.751Z,88.76
2018-01-12T06:54:47.753Z,88.86
2018-01-12T06:55:47.756Z,88.57
2018-01-12T06:56:47.753Z,88.10
2018-01-12T06:57:47.770Z,88.57
2018-01-12T06:58:47.768Z,89.53
2018-01-12T06:59:47.767Z,89.43
2018-01-12T07:00:47.767Z,88.67
2018-01-12T07:01:47.772Z,88.29
2018-01-12T07:02:47.772Z,88.10
2018-01-12T07:03:47.779Z,88.01
2018-01-12T07:04:47.773Z,87.91
2018-01-12T07:05:47.783Z,87.43
2018-01-12T07:06:47.781Z,87.34
2018-01-12T07:07:47.789Z,87.72
2018-01-12T07:08:47.789Z,87.72
2018-01-12T07:09:47.795Z,87.72
2018-01-12T07:10:47.808Z,88.20
2018-01-12T07:11:47.806Z,87.91
2018-01-12T07:12:47.797Z,88.76
2018-01-12T07:13:47.809Z,87.91
2018-01-12T07:14:47.803Z,87.62
2018-01-12T07:15:47.811Z,87.91
2018-01-12T07:16:47.807Z,88.29
2018-01-12T07:17:47.814Z,88.39
2018-01-12T07:18:47.819Z,88.67
2018-01-12T07:19:47.818Z,88.39
2018-01-12T07:20:47.825Z,88.39
2018-01-12T07:21:47.828Z,88.39
2018-01-12T07:22:47.830Z,88.29
2018-01-12T07:23:47.832Z,88.76
2018-01-12T07:24:47.840Z,88.86
2018-01-12T07:25:47.901Z,88.76
2018-01-12T07:26:47.840Z,88.57
2018-01-12T07:27:47.836Z,89.33
2018-01-12T07:28:47.842Z,89.53
2018-01-12T07:29:47.850Z,89.62
2018-01-12T07:30:47.854Z,89.72
2018-01-12T07:31:47.899Z,90.76
2018-01-12T07:32:47.851Z,90.66
2018-01-12T07:33:47.857Z,89.81
2018-01-12T07:34:47.859Z,89.29
2018-01-12T07:35:47.861Z,89.33
2018-01-12T07:36:47.864Z,89.43
2018-01-12T07:37:47.873Z,89.62
2018-01-12T07:38:47.870Z,88.76
2018-01-12T07:39:47.869Z,88.86
2018-01-12T07:40:47.873Z,89.05
2018-01-12T07:41:47.881Z,88.76
2018-01-12T07:42:47.879Z,88.29
2018-01-12T07:43:47.886Z,88.48
2018-01-12T07:44:47.890Z,88.39
2018-01-12T07:45:47.891Z,88.39
2018-01-12T07:46:47.891Z,88.67
2018-01-12T07:47:47.896Z,88.48
2018-01-12T07:48:47.902Z,88.48
2018-01-12T07:49:47.899Z,87.62
2018-01-12T07:50:47.905Z,88.48
2018-01-12T07:51:47.906Z,88.57
2018-01-12T07:52:47.905Z,88.48
2018-01-12T07:53:47.914Z,88.39
2018-01-12T07:54:47.914Z,88.29
2018-01-12T07:55:47.916Z,88.76
2018-01-12T07:56:47.918Z,88.39
2018-01-12T07:57:47.924Z,88.29
2018-01-12T07:58:47.960Z,88.76
2018-01-12T07:59:47.929Z,87.62
2018-01-12T08:00:47.983Z,87.72
2018-01-12T08:01:48.676Z,88.20
2018-01-12T08:02:47.932Z,87.72
2018-01-12T08:03:47.997Z,87.91
2018-01-12T08:04:47.939Z,87.34
2018-01-12T08:05:47.947Z,87.62
2018-01-12T08:06:47.942Z,87.34
2018-01-12T08:07:47.949Z,87.72
2018-01-12T08:08:47.986Z,87.15
2018-01-12T08:09:47.955Z,87.43
2018-01-12T08:10:47.954Z,87.34
2018-01-12T08:11:47.964Z,87.34
2018-01-12T08:12:47.959Z,86.87
2018-01-12T08:13:47.968Z,87.53
2018-01-12T08:14:47.971Z,87.72
2018-01-12T08:15:47.973Z,87.24
2018-01-12T08:16:47.980Z,87.34
2018-01-12T08:17:47.978Z,87.24
2018-01-12T08:18:47.980Z,87.24
2018-01-12T08:19:47.979Z,87.15
2018-01-12T08:20:47.986Z,86.96
2018-01-12T08:21:47.984Z,87.62
2018-01-12T08:22:47.993Z,87.72
2018-01-12T08:23:47.993Z,87.34
2018-01-12T08:24:47.997Z,87.53
2018-01-12T08:25:48.000Z,87.53
2018-01-12T08:26:48.002Z,87.91
2018-01-12T08:27:48.000Z,87.24
2018-01-12T08:28:48.007Z,87.34
2018-01-12T08:29:48.008Z,87.15
2018-01-12T08:30:48.022Z,87.72
2018-01-12T08:31:48.018Z,87.91
2018-01-12T08:32:48.016Z,87.43
2018-01-12T08:33:48.026Z,87.43
2018-01-12T08:34:48.022Z,87.43
2018-01-12T08:35:48.031Z,87.15
2018-01-12T08:36:48.028Z,87.82
2018-01-12T08:37:48.036Z,87.24
2018-01-12T08:38:48.037Z,87.15
2018-01-12T08:39:48.042Z,87.53
2018-01-12T08:40:48.040Z,87.34
2018-01-12T08:41:48.044Z,86.87
2018-01-12T08:42:48.046Z,87.15
2018-01-12T08:43:48.052Z,86.77
2018-01-12T08:44:48.054Z,86.87
2018-01-12T08:45:48.057Z,86.77
2018-01-12T08:46:48.059Z,86.87
2018-01-12T08:47:48.060Z,87.43
2018-01-12T08:48:48.064Z,87.34
2018-01-12T08:49:48.069Z,87.34
2018-01-12T08:50:48.072Z,86.77
2018-01-12T08:51:48.074Z,86.96
2018-01-12T08:52:48.077Z,86.96
2018-01-12T08:53:48.082Z,87.24
2018-01-12T08:54:48.084Z,86.68
2018-01-12T08:55:48.084Z,86.96
2018-01-12T08:56:48.084Z,87.24
2018-01-12T08:57:48.097Z,87.15
2018-01-12T08:58:48.096Z,87.72
2018-01-12T08:59:48.698Z,87.34
2018-01-12T09:00:48.097Z,87.62
2018-01-12T09:01:48.103Z,87.43
2018-01-12T09:02:48.103Z,87.15
2018-01-12T09:03:48.105Z,87.72
2018-01-12T09:04:48.107Z,87.34
2018-01-12T09:05:48.118Z,87.62
2018-01-12T09:06:48.124Z,87.34
2018-01-12T09:07:48.117Z,87.24
2018-01-12T09:08:48.120Z,87.24
2018-01-12T09:09:48.128Z,87.34
2018-01-12T09:10:48.124Z,87.72
2018-01-12T09:11:48.134Z,87.24
2018-01-12T09:12:48.136Z,87.43
2018-01-12T09:13:48.134Z,87.72
2018-01-12T09:14:48.137Z,87.62
2018-01-12T09:15:48.145Z,87.72
2018-01-12T09:16:48.152Z,87.72
2018-01-12T09:17:48.146Z,86.96
2018-01-12T09:18:48.152Z,86.82
2018-01-12T09:19:48.158Z,86.96
2018-01-12T09:20:48.155Z,86.96
2018-01-12T09:21:48.159Z,87.72
2018-01-12T09:22:48.161Z,87.62
2018-01-12T09:23:48.168Z,87.53
2018-01-12T09:24:48.166Z,87.53
2018-01-12T09:25:48.175Z,87.53
2018-01-12T09:26:48.187Z,87.62
2018-01-12T09:27:48.177Z,87.72
2018-01-12T09:28:48.178Z,87.43
2018-01-12T09:29:48.185Z,87.34
2018-01-12T09:30:48.191Z,87.43
2018-01-12T09:31:48.190Z,87.15
2018-01-12T09:32:48.192Z,87.24
2018-01-12T09:33:48.205Z,87.24
2018-01-12T09:34:48.199Z,87.43
2018-01-12T09:35:48.208Z,87.34
2018-01-12T09:36:48.203Z,87.43
2018-01-12T09:37:48.207Z,87.62
2018-01-12T09:38:48.222Z,87.72
2018-01-12T09:39:48.221Z,87.91
2018-01-12T09:40:48.218Z,87.15
2018-01-12T09:41:48.224Z,87.38
2018-01-12T09:42:48.223Z,87.34
2018-01-12T09:43:48.229Z,87.57
2018-01-12T09:44:48.230Z,87.24
2018-01-12T09:45:48.229Z,87.15
2018-01-12T09:46:48.235Z,87.15
2018-01-12T09:47:48.236Z,87.82
2018-01-12T09:48:48.244Z,87.82
2018-01-12T09:49:48.242Z,87.91
2018-01-12T09:50:48.249Z,87.62
2018-01-12T09:51:48.249Z,88.10
2018-01-12T09:52:48.271Z,87.95
2018-01-12T09:53:48.258Z,87.76
2018-01-12T09:54:48.263Z,87.19
2018-01-12T09:55:48.319Z,87.19
2018-01-12T09:56:48.314Z,86.72
2018-01-12T09:57:48.266Z,87.01
2018-01-12T09:58:48.268Z,87.19
2018-01-12T09:59:48.276Z,87.67
2018-01-12T10:00:48.280Z,87.48
2018-01-12T10:01:48.278Z,87.29
2018-01-12T10:02:48.284Z,87.57
2018-01-12T10:03:48.289Z,87.38
2018-01-12T10:04:48.305Z,87.67
2018-01-12T10:05:48.292Z,87.38
2018-01-12T10:06:48.314Z,87.67
2018-01-12T10:07:48.318Z,87.57
2018-01-12T10:08:48.297Z,87.38
2018-01-12T10:09:48.316Z,87.38
2018-01-12T10:10:48.362Z,87.43
2018-01-12T10:11:48.313Z,87.62
2018-01-12T10:12:48.315Z,88.01
2018-01-12T10:13:48.319Z,87.62
2018-01-12T10:14:48.324Z,87.24
2018-01-12T10:15:48.325Z,87.43
2018-01-12T10:16:48.357Z,87.34
2018-01-12T10:17:48.331Z,87.57
2018-01-12T10:18:48.376Z,87.76
2018-01-12T10:19:48.344Z,87.86
2018-01-12T10:20:48.382Z,87.95
2018-01-12T10:21:48.386Z,87.67
2018-01-12T10:22:48.348Z,87.86
2018-01-12T10:23:48.362Z,87.29
2018-01-12T10:24:48.348Z,87.19
2018-01-12T10:25:48.353Z,87.38
2018-01-12T10:26:48.362Z,87.29
2018-01-12T10:27:48.379Z,87.38
2018-01-12T10:28:48.394Z,87.48
2018-01-12T10:29:48.390Z,87.67
2018-01-12T10:30:48.392Z,87.67
2018-01-12T10:31:48.380Z,87.67
2018-01-12T10:32:48.403Z,87.38
2018-01-12T10:33:48.423Z,87.86
2018-01-12T10:34:48.402Z,87.76
2018-01-12T10:35:48.391Z,87.43
2018-01-12T10:36:49.211Z,87.76
2018-01-12T10:37:48.415Z,87.95
2018-01-12T10:38:48.420Z,87.57
2018-01-12T10:39:48.394Z,87.57
2018-01-12T10:40:48.478Z,87.91
2018-01-12T10:41:48.422Z,87.53
2018-01-12T10:42:48.465Z,87.43
2018-01-12T10:43:48.451Z,88.57
2018-01-12T10:44:48.491Z,88.57
2018-01-12T10:45:48.420Z,88.20
2018-01-12T10:46:48.470Z,88.67
2018-01-12T10:47:48.423Z,88.39
2018-01-12T10:48:48.442Z,88.39
2018-01-12T10:49:49.210Z,88.39
2018-01-12T10:50:48.439Z,88.53
2018-01-12T10:51:48.435Z,88.71
2018-01-12T10:52:48.440Z,88.05
2018-01-12T10:53:48.440Z,87.95
2018-01-12T10:54:48.444Z,88.76
2018-01-12T10:55:48.450Z,88.53
2018-01-12T10:56:48.450Z,88.71
2018-01-12T10:57:48.457Z,87.76
2018-01-12T10:58:48.456Z,88.05
2018-01-12T10:59:48.464Z,87.76
2018-01-12T11:00:48.465Z,87.86
2018-01-12T11:01:48.469Z,87.38
2018-01-12T11:02:48.472Z,87.86
2018-01-12T11:03:48.471Z,88.05
2018-01-12T11:04:48.476Z,88.05
2018-01-12T11:05:48.482Z,88.62
2018-01-12T11:06:48.510Z,88.43
2018-01-12T11:07:48.487Z,88.62
2018-01-12T11:08:48.492Z,88.43
2018-01-12T11:09:48.491Z,88.53
2018-01-12T11:10:48.496Z,88.43
2018-01-12T11:11:48.496Z,88.05
2018-01-12T11:12:48.502Z,87.86
2018-01-12T11:13:48.500Z,87.57
2018-01-12T11:14:48.510Z,87.67
2018-01-12T11:15:48.504Z,88.20
2018-01-12T11:16:48.513Z,88.43
2018-01-12T11:17:48.516Z,88.67
2018-01-12T11:18:48.518Z,88.24
2018-01-12T11:19:48.525Z,87.67
2018-01-12T11:20:48.529Z,87.38
2018-01-12T11:21:48.528Z,87.95
2018-01-12T11:22:48.530Z,87.95
2018-01-12T11:23:48.538Z,87.86
2018-01-12T11:24:48.542Z,87.95
2018-01-12T11:25:48.540Z,87.86
2018-01-12T11:26:48.545Z,87.67
2018-01-12T11:27:48.546Z,87.19
2018-01-12T11:28:48.550Z,87.67
2018-01-12T11:29:48.558Z,87.67
2018-01-12T11:30:48.562Z,86.63
2018-01-12T11:31:48.558Z,86.63
2018-01-12T11:32:48.561Z,87.01
2018-01-12T11:33:48.568Z,86.82
2018-01-12T11:34:48.569Z,87.01
2018-01-12T11:35:48.573Z,86.63
2018-01-12T11:36:49.226Z,87.01
2018-01-12T11:37:48.618Z,87.57
2018-01-12T11:38:48.588Z,87.01
2018-01-12T11:39:48.584Z,86.82
2018-01-12T11:40:48.588Z,86.63
2018-01-12T11:41:48.592Z,86.91
2018-01-12T11:42:48.597Z,86.15
2018-01-12T11:43:48.604Z,86.34
2018-01-12T11:44:48.600Z,86.15
2018-01-12T11:45:48.606Z,86.43
2018-01-12T11:46:48.611Z,85.77
2018-01-12T11:47:48.609Z,86.05
2018-01-12T11:48:48.616Z,85.91
2018-01-12T11:49:48.622Z,85.81
2018-01-12T11:50:48.619Z,85.91
2018-01-12T11:51:48.630Z,85.34
2018-01-12T11:52:48.623Z,85.53
2018-01-12T11:53:48.635Z,85.53
2018-01-12T11:54:48.635Z,85.30
2018-01-12T11:55:48.641Z,85.53
2018-01-12T11:56:48.641Z,85.39
2018-01-12T11:57:48.644Z,85.34
2018-01-12T11:58:48.649Z,85.62
2018-01-12T11:59:48.659Z,84.72
2018-01-12T12:00:48.653Z,84.82
2018-01-12T12:01:48.659Z,84.95
2018-01-12T12:02:48.656Z,85.05
2018-01-12T12:03:48.706Z,85.58
2018-01-12T12:04:48.670Z,85.34
2018-01-12T12:05:48.673Z,85.81
2018-01-12T12:06:48.679Z,85.81
2018-01-12T12:07:48.678Z,86.00
2018-01-12T12:08:48.684Z,85.30
2018-01-12T12:09:48.686Z,85.58
2018-01-12T12:10:48.737Z,86.43
2018-01-12T12:11:48.693Z,86.15
2018-01-12T12:12:48.699Z,86.15
2018-01-12T12:13:48.698Z,86.24
2018-01-12T12:14:48.710Z,86.15
2018-01-12T12:15:48.706Z,86.24
2018-01-12T12:16:48.712Z,85.86
2018-01-12T12:17:48.716Z,86.05
2018-01-12T12:18:48.719Z,85.86
2018-01-12T12:19:48.715Z,85.77
2018-01-12T12:20:48.723Z,85.77
2018-01-12T12:21:48.728Z,86.53
2018-01-12T12:22:48.736Z,86.34
2018-01-12T12:23:48.733Z,87.01
2018-01-12T12:24:48.733Z,86.91
2018-01-12T12:25:48.742Z,86.72
2018-01-12T12:26:48.746Z,86.63
2018-01-12T12:27:48.744Z,86.82
2018-01-12T12:28:48.750Z,86.24
2018-01-12T12:29:48.753Z,86.15
2018-01-12T12:30:48.761Z,86.53
2018-01-12T12:31:48.756Z,86.24
2018-01-12T12:32:48.761Z,86.15
2018-01-12T12:33:48.766Z,86.15
2018-01-12T12:34:48.770Z,86.29
2018-01-12T12:35:48.772Z,86.43
2018-01-12T12:36:48.771Z,86.24
2018-01-12T12:37:48.782Z,86.82
2018-01-12T12:38:48.785Z,87.01
2018-01-12T12:39:48.789Z,87.10
2018-01-12T12:40:48.792Z,86.82
2018-01-12T12:41:48.798Z,86.24
2018-01-12T12:42:48.798Z,86.34
2018-01-12T12:43:48.813Z,86.43
2018-01-12T12:44:48.800Z,86.63
2018-01-12T12:45:48.809Z,86.91
2018-01-12T12:46:48.810Z,86.91
2018-01-12T12:47:48.817Z,86.63
2018-01-12T12:48:48.816Z,86.82
2018-01-12T12:49:48.816Z,87.38
2018-01-12T12:50:48.823Z,87.38
2018-01-12T12:51:48.825Z,87.48
2018-01-12T12:52:48.826Z,87.57
2018-01-12T12:53:48.836Z,87.86